Time;durP1;ratioP1;P1;durP2;ratioP2;P2;SDS_P1;SDS_P2;PMS_P1;PMS_P2;Temp;Humidity;BMP_temperature;BMP_pressure;BME280_temperature;BME280_humidity;BME280_pressure;Samples;Min_cycle;Max_cycle;Signal;HPM_P1;HPM_P2
2021/08/19 00:00:10;;;;;;;2.10;1.15;;;;;;;28.26;35.54;96688.22;4994104;28;20033;-30
2021/08/19 00:02:35;;;;;;;3.00;1.48;;;;;;;28.26;35.40;96690.84;4977000;28;20393;-30
2021/08/19 00:05:00;;;;;;;1.88;1.05;;;;;;;28.25;35.45;96686.47;4991701;28;20421;-33
2021/08/19 00:07:26;;;;;;;1.98;1.10;;;;;;;28.25;35.66;96686.47;4994388;28;21013;-30
2021/08/19 00:09:52;;;;;;;1.90;1.10;;;;;;;28.25;35.62;96687.38;4983122;28;20029;-30
2021/08/19 00:12:18;;;;;;;4.18;1.30;;;;;;;28.24;35.60;96680.38;4983556;28;20444;-31
2021/08/19 00:14:43;;;;;;;2.42;0.98;;;;;;;28.27;35.43;96689.91;4982041;28;20034;-32
2021/08/19 00:17:09;;;;;;;2.35;1.33;;;;;;;28.26;35.53;96682.94;4984760;28;20049;-31
2021/08/19 00:19:35;;;;;;;1.88;1.00;;;;;;;28.27;35.50;96687.25;4995427;28;20029;-30
2021/08/19 00:22:01;;;;;;;3.10;1.08;;;;;;;28.28;35.50;96686.31;4996385;28;20378;-31
2021/08/19 00:24:26;;;;;;;1.63;1.17;;;;;;;28.27;35.46;96684.63;4995701;28;20044;-32
2021/08/19 00:26:52;;;;;;;4.75;1.17;;;;;;;28.27;35.56;96679.38;4989146;28;20029;-31
2021/08/19 00:29:17;;;;;;;2.33;1.10;;;;;;;28.27;35.66;96679.38;4991557;28;20088;-31
2021/08/19 00:31:42;;;;;;;3.50;1.20;;;;;;;28.27;35.48;96682.00;4990506;28;20026;-32
2021/08/19 00:34:08;;;;;;;1.58;0.90;;;;;;;28.26;35.51;96678.50;4976542;28;20049;-30
2021/08/19 00:36:34;;;;;;;2.92;0.77;;;;;;;28.26;35.56;96678.50;4991822;28;20025;-31
2021/08/19 00:38:59;;;;;;;1.52;0.80;;;;;;;28.27;35.64;96687.25;4982334;28;20041;-33
2021/08/19 00:41:25;;;;;;;2.22;1.10;;;;;;;28.27;35.74;96684.63;4981458;28;20451;-28
2021/08/19 00:43:50;;;;;;;1.33;1.00;;;;;;;28.27;35.60;96682.00;4973698;28;20041;-31
2021/08/19 00:46:30;;;;;;;1.48;1.17;;;;;;;28.26;35.80;96678.50;4993045;28;20629;-30
2021/08/19 00:49:05;;;;;;;1.48;1.10;;;;;;;28.26;35.66;96677.69;4987050;28;20030;-29
2021/08/19 00:51:37;;;;;;;3.13;0.90;;;;;;;28.27;35.77;96676.72;4988872;28;20899;-31
2021/08/19 00:54:04;;;;;;;3.45;1.20;;;;;;;28.26;35.57;96675.88;4996273;28;20141;-34
2021/08/19 00:56:29;;;;;;;2.55;1.05;;;;;;;28.26;35.71;96667.97;4994031;28;20046;-30
2021/08/19 00:58:57;;;;;;;1.42;1.00;;;;;;;28.26;35.70;96673.22;4993459;28;20529;-28
2021/08/19 01:01:22;;;;;;;2.30;0.93;;;;;;;28.27;35.64;96674.91;4988216;28;20030;-32
2021/08/19 01:03:48;;;;;;;1.00;0.90;;;;;;;28.26;35.64;96662.69;4990002;28;20117;-32
2021/08/19 01:06:13;;;;;;;1.65;1.00;;;;;;;28.26;35.32;96661.88;5006291;28;20061;-32
2021/08/19 01:08:38;;;;;;;2.70;1.00;;;;;;;28.26;35.58;96661.88;4992314;28;20026;-31
2021/08/19 01:11:04;;;;;;;0.98;0.88;;;;;;;28.26;35.64;96665.31;4990467;28;20029;-31
2021/08/19 01:13:29;;;;;;;3.83;1.38;;;;;;;28.25;35.72;96662.75;4971869;28;20499;-32
2021/08/19 01:15:55;;;;;;;2.35;0.90;;;;;;;28.25;35.57;96660.13;4992411;28;20032;-29
2021/08/19 01:18:20;;;;;;;1.98;1.10;;;;;;;28.26;35.83;96665.31;4986441;28;20033;-30
2021/08/19 01:20:45;;;;;;;1.63;1.05;;;;;;;28.26;35.71;96659.22;4993648;28;20029;-28
2021/08/19 01:23:11;;;;;;;2.50;1.00;;;;;;;28.25;35.90;96658.38;4987951;28;20045;-33
2021/08/19 01:25:36;;;;;;;2.17;1.00;;;;;;;28.21;35.76;96658.63;4992689;28;20064;-30
2021/08/19 01:28:02;;;;;;;1.40;1.08;;;;;;;28.26;35.79;96661.88;4993894;28;20290;-31
2021/08/19 01:30:29;;;;;;;1.40;0.98;;;;;;;28.25;35.82;96666.28;4993711;28;20072;-29
2021/08/19 01:32:55;;;;;;;1.60;1.00;;;;;;;28.25;35.80;96670.66;4989681;28;20026;-32
2021/08/19 01:35:26;;;;;;;1.15;0.80;;;;;;;28.25;35.91;96663.66;4989514;28;20045;-30
2021/08/19 01:37:51;;;;;;;1.90;0.90;;;;;;;28.26;35.67;96661.88;4990348;28;20029;-30
2021/08/19 01:40:16;;;;;;;1.67;0.98;;;;;;;28.25;35.84;96665.41;4995260;28;20084;-29
2021/08/19 01:42:42;;;;;;;1.02;0.82;;;;;;;28.25;35.83;96657.50;4988585;28;20042;-29
2021/08/19 01:45:09;;;;;;;0.95;0.80;;;;;;;28.25;35.72;96660.13;4992305;28;20042;-30
2021/08/19 01:47:35;;;;;;;1.40;0.98;;;;;;;28.24;35.83;96654.03;4987316;28;20037;-32
2021/08/19 01:50:00;;;;;;;1.10;1.00;;;;;;;28.24;35.82;96659.28;4969771;28;20495;-32
2021/08/19 01:52:26;;;;;;;3.33;0.90;;;;;;;28.25;35.84;96660.13;4995631;28;20038;-31
2021/08/19 01:54:51;;;;;;;2.42;1.02;;;;;;;28.24;35.72;96656.66;4984171;28;20456;-29
2021/08/19 01:57:16;;;;;;;1.65;0.70;;;;;;;28.25;35.77;96654.84;4985793;28;20037;-30
2021/08/19 01:59:42;;;;;;;1.20;1.10;;;;;;;28.25;35.84;96652.22;4989777;28;20030;-33
2021/08/19 02:02:07;;;;;;;1.25;0.80;;;;;;;28.25;35.86;96654.84;4990465;28;20420;-30
2021/08/19 02:04:32;;;;;;;0.63;0.63;;;;;;;28.24;35.84;96655.81;4991479;28;20042;-30
2021/08/19 02:06:58;;;;;;;1.48;0.77;;;;;;;28.24;35.77;96658.44;4993986;28;20029;-35
2021/08/19 02:09:23;;;;;;;1.08;0.93;;;;;;;28.25;35.84;96660.13;4990112;28;20030;-29
2021/08/19 02:11:49;;;;;;;1.13;0.80;;;;;;;28.25;35.82;96660.13;4992278;28;20138;-31
2021/08/19 02:14:15;;;;;;;1.42;0.93;;;;;;;28.25;35.73;96652.22;4992698;28;20053;-31
2021/08/19 02:16:40;;;;;;;3.13;0.80;;;;;;;28.25;35.91;96654.84;4995498;28;20107;-32
2021/08/19 02:19:05;;;;;;;2.92;0.80;;;;;;;28.25;35.87;96654.84;4989092;28;20056;-32
2021/08/19 02:21:31;;;;;;;3.88;1.13;;;;;;;28.25;35.71;96650.47;4985942;28;22105;-31
2021/08/19 02:23:56;;;;;;;1.98;0.80;;;;;;;28.25;35.83;96646.94;4994342;28;20025;-30
2021/08/19 02:26:21;;;;;;;1.08;0.73;;;;;;;28.25;35.82;96657.50;4995266;28;20025;-31
2021/08/19 02:28:47;;;;;;;1.13;0.80;;;;;;;28.24;35.77;96658.44;4994663;28;20033;-32
2021/08/19 02:31:12;;;;;;;1.15;0.80;;;;;;;28.24;35.78;96658.44;4995734;28;20074;-31
2021/08/19 02:33:38;;;;;;;3.67;0.80;;;;;;;28.24;35.84;96658.44;4996408;28;20036;-30
2021/08/19 02:36:03;;;;;;;1.25;0.82;;;;;;;28.25;35.72;96657.50;4992159;28;20026;-31
2021/08/19 02:38:29;;;;;;;5.43;1.00;;;;;;;28.24;35.81;96651.41;4991603;28;20079;-30
2021/08/19 02:40:54;;;;;;;1.10;0.70;;;;;;;28.25;35.78;96644.31;4990132;28;20049;-29
2021/08/19 02:43:20;;;;;;;1.38;0.80;;;;;;;28.25;35.89;96646.94;4995938;28;20501;-30
2021/08/19 02:45:45;;;;;;;1.05;0.80;;;;;;;28.24;35.61;96640.00;5000400;28;20029;-33
2021/08/19 02:48:10;;;;;;;1.20;0.90;;;;;;;28.26;35.83;96640.78;4997858;28;20030;-28
2021/08/19 02:50:36;;;;;;;0.77;0.73;;;;;;;28.24;35.89;96638.22;4991227;28;20793;-31
2021/08/19 02:53:01;;;;;;;0.52;0.52;;;;;;;28.24;35.88;96626.81;4997541;28;20112;-31
2021/08/19 02:55:27;;;;;;;1.15;0.90;;;;;;;28.24;35.77;96626.81;4999211;28;20030;-30
2021/08/19 02:57:52;;;;;;;2.15;0.75;;;;;;;28.24;35.85;96629.47;4988756;28;20038;-33
2021/08/19 03:00:17;;;;;;;0.88;0.80;;;;;;;28.23;35.84;96626.00;4996433;28;20022;-30
2021/08/19 03:02:43;;;;;;;1.10;0.55;;;;;;;28.23;35.72;96633.91;4997468;28;20403;-32
2021/08/19 03:05:09;;;;;;;3.25;1.00;;;;;;;28.23;35.71;96628.63;4985825;28;20042;-31
2021/08/19 03:07:34;;;;;;;1.58;0.90;;;;;;;28.23;35.87;96631.28;4995881;28;20032;-30
2021/08/19 03:09:59;;;;;;;0.85;0.80;;;;;;;28.23;35.91;96630.41;4996722;28;20477;-30
2021/08/19 03:12:25;;;;;;;2.03;1.08;;;;;;;28.23;35.74;96628.63;4995318;28;20076;-31
2021/08/19 03:14:50;;;;;;;1.40;0.70;;;;;;;28.23;35.66;96626.00;4994577;28;20032;-29
2021/08/19 03:17:16;;;;;;;0.80;0.60;;;;;;;28.24;35.80;96626.81;4996090;28;20026;-31
2021/08/19 03:19:42;;;;;;;1.27;0.80;;;;;;;28.23;35.79;96622.50;4994572;28;20033;-29
2021/08/19 03:22:10;;;;;;;0.90;0.73;;;;;;;28.22;35.70;96613.75;4992591;28;20037;-34
2021/08/19 03:24:36;;;;;;;1.15;0.93;;;;;;;28.23;35.78;96625.13;4990316;28;20026;-31
2021/08/19 03:27:02;;;;;;;1.33;0.88;;;;;;;28.23;35.57;96626.00;4992635;28;20084;-31
2021/08/19 03:29:29;;;;;;;1.90;0.68;;;;;;;28.22;35.73;96626.09;4993943;28;20720;-30
2021/08/19 03:31:54;;;;;;;1.15;0.60;;;;;;;28.21;35.80;96621.75;4996030;28;20022;-28
2021/08/19 03:34:20;;;;;;;0.60;0.52;;;;;;;28.23;35.79;96619.88;4986724;28;20040;-33
2021/08/19 03:36:46;;;;;;;1.92;0.95;;;;;;;28.23;35.89;96619.88;4996681;28;20097;-32
2021/08/19 03:39:12;;;;;;;3.67;0.88;;;;;;;28.22;35.93;96624.28;4989880;28;20049;-29
2021/08/19 03:41:38;;;;;;;1.10;0.88;;;;;;;28.23;35.83;96627.78;4993549;28;20030;-29
2021/08/19 03:44:03;;;;;;;1.08;0.80;;;;;;;28.23;35.80;96633.03;4991031;28;20026;-32
2021/08/19 03:46:29;;;;;;;3.22;0.90;;;;;;;28.24;35.74;96632.09;4989102;28;20030;-32
2021/08/19 03:48:54;;;;;;;1.58;0.90;;;;;;;28.22;35.68;96629.56;4991981;28;20100;-30
2021/08/19 03:51:19;;;;;;;2.33;0.60;;;;;;;28.22;35.86;96623.47;4996841;28;20030;-32
2021/08/19 03:53:50;;;;;;;1.08;0.73;;;;;;;28.23;35.84;96625.13;4987220;28;20021;-31
2021/08/19 03:56:16;;;;;;;2.92;0.82;;;;;;;28.23;35.89;96625.13;4992235;28;20038;-30
2021/08/19 03:58:41;;;;;;;1.17;0.70;;;;;;;28.23;35.80;96630.41;4996493;28;20044;-31
2021/08/19 04:01:06;;;;;;;2.95;0.77;;;;;;;28.23;35.86;96625.13;4994461;28;20033;-31
2021/08/19 04:03:32;;;;;;;3.67;0.90;;;;;;;28.22;35.75;96620.81;4993956;28;20037;-29
2021/08/19 04:05:57;;;;;;;1.65;0.80;;;;;;;28.22;35.85;96626.91;4997871;28;20026;-35
2021/08/19 04:08:23;;;;;;;1.48;0.85;;;;;;;28.21;35.87;96621.75;4990323;28;20038;-29
2021/08/19 04:10:48;;;;;;;0.88;0.70;;;;;;;28.22;35.76;96626.09;4988338;28;20041;-32
2021/08/19 04:13:14;;;;;;;1.38;0.75;;;;;;;28.22;35.81;96618.19;4983675;28;20038;-29
2021/08/19 04:15:39;;;;;;;0.95;0.80;;;;;;;28.21;35.82;96621.75;4985301;28;20048;-31
2021/08/19 04:18:04;;;;;;;0.70;0.70;;;;;;;28.21;35.71;96627.00;4989064;28;20452;-30
2021/08/19 04:20:30;;;;;;;1.38;0.90;;;;;;;28.21;35.87;96621.75;4990208;28;20041;-30
2021/08/19 04:22:55;;;;;;;2.22;0.60;;;;;;;28.21;35.95;96621.75;4998685;28;20034;-30
2021/08/19 04:25:21;;;;;;;1.65;0.90;;;;;;;28.20;35.78;96620.06;4994187;28;20018;-32
2021/08/19 04:27:46;;;;;;;1.88;0.70;;;;;;;28.18;35.80;96617.53;4993828;28;20065;-32
2021/08/19 04:30:12;;;;;;;1.45;0.85;;;;;;;28.21;35.84;96621.75;4991076;28;20608;-31
2021/08/19 04:32:37;;;;;;;1.50;0.70;;;;;;;28.21;35.82;96621.75;4995424;28;20109;-29
2021/08/19 04:35:03;;;;;;;1.83;0.70;;;;;;;28.20;35.78;96625.34;4989938;28;20029;-31
2021/08/19 04:37:29;;;;;;;2.45;0.98;;;;;;;28.20;35.86;96618.28;4992966;28;20064;-32
2021/08/19 04:39:54;;;;;;;1.38;1.00;;;;;;;28.17;36.04;96627.25;4987560;28;20030;-29
2021/08/19 04:42:20;;;;;;;3.63;0.90;;;;;;;28.21;36.02;96632.28;4988910;28;20077;-31
2021/08/19 04:44:45;;;;;;;1.50;0.70;;;;;;;28.20;35.93;96628.81;4988716;28;20668;-30
2021/08/19 04:47:10;;;;;;;2.17;0.88;;;;;;;28.18;35.86;96628.91;4997808;28;20048;-31
2021/08/19 04:49:36;;;;;;;1.73;0.77;;;;;;;28.20;36.06;96625.34;4993048;28;20034;-29
2021/08/19 04:52:01;;;;;;;2.55;0.73;;;;;;;28.21;35.77;96627.00;4988590;28;20033;-33
2021/08/19 04:54:27;;;;;;;1.65;0.70;;;;;;;28.20;35.94;96625.34;4990115;28;20114;-33
2021/08/19 04:56:52;;;;;;;1.15;0.60;;;;;;;28.20;35.97;96630.59;4994676;28;20758;-31
2021/08/19 04:59:18;;;;;;;1.33;0.70;;;;;;;28.20;35.97;96631.47;4987820;28;20034;-30
2021/08/19 05:01:43;;;;;;;0.75;0.68;;;;;;;28.19;36.06;96629.78;4994917;28;20029;-34
2021/08/19 05:04:08;;;;;;;0.65;0.60;;;;;;;28.18;35.89;96628.91;4991584;28;20053;-30
2021/08/19 05:06:34;;;;;;;1.70;0.80;;;;;;;28.16;35.77;96620.28;4989341;28;20034;-29
2021/08/19 05:09:02;;;;;;;2.30;0.80;;;;;;;28.19;35.86;96627.16;4987081;28;20668;-31
2021/08/19 05:11:27;;;;;;;1.55;0.98;;;;;;;28.20;35.86;96625.34;4993301;28;20053;-30
2021/08/19 05:13:53;;;;;;;2.05;0.70;;;;;;;28.18;35.88;96626.28;4992685;28;20542;-31
2021/08/19 05:16:18;;;;;;;2.42;0.70;;;;;;;28.17;35.90;96616.69;4988354;28;20485;-33
2021/08/19 05:18:44;;;;;;;8.88;0.93;;;;;;;28.17;35.92;96619.34;4988032;28;20041;-31
2021/08/19 05:21:10;;;;;;;2.85;0.73;;;;;;;28.17;35.99;96616.69;4988598;28;20113;-31
2021/08/19 05:23:35;;;;;;;2.20;0.57;;;;;;;28.18;35.82;96633.34;4996854;28;20710;-29
2021/08/19 05:26:01;;;;;;;2.10;0.90;;;;;;;28.17;35.86;96627.25;4997496;28;20072;-30
2021/08/19 05:28:26;;;;;;;0.70;0.70;;;;;;;28.17;35.83;96627.25;4989163;28;20056;-33
2021/08/19 05:30:52;;;;;;;1.67;0.90;;;;;;;28.18;35.89;96630.69;4987103;28;20033;-34
2021/08/19 05:33:17;;;;;;;2.60;0.85;;;;;;;28.17;35.76;96626.38;4987895;28;20103;-31
2021/08/19 05:35:43;;;;;;;1.63;0.90;;;;;;;28.17;35.79;96629.88;4992012;28;20038;-32
2021/08/19 05:38:08;;;;;;;2.65;0.90;;;;;;;28.16;35.98;96625.56;4987848;28;20033;-30
2021/08/19 05:40:33;;;;;;;4.40;1.10;;;;;;;28.17;35.57;96632.50;4989054;28;20045;-31
2021/08/19 05:42:59;;;;;;;1.05;0.77;;;;;;;28.17;35.93;96632.50;4991177;28;20022;-32
2021/08/19 05:45:24;;;;;;;3.17;0.75;;;;;;;28.16;35.85;96630.81;4992153;28;20042;-31
2021/08/19 05:47:50;;;;;;;1.58;0.80;;;;;;;28.16;35.77;96629.97;4993916;28;20030;-29
2021/08/19 05:50:15;;;;;;;2.22;0.90;;;;;;;28.17;36.07;96636.91;4992495;28;20421;-33
2021/08/19 05:52:40;;;;;;;0.85;0.70;;;;;;;28.16;36.02;96644.00;4989105;28;20072;-31
2021/08/19 05:55:06;;;;;;;3.17;0.80;;;;;;;28.16;35.99;96644.00;4996120;28;20034;-31
2021/08/19 05:57:32;;;;;;;2.67;0.88;;;;;;;28.16;35.98;96654.53;4994519;28;20026;-32
2021/08/19 05:59:57;;;;;;;5.35;0.95;;;;;;;28.17;35.99;96648.31;4995153;28;20562;-31
2021/08/19 06:02:23;;;;;;;2.03;1.02;;;;;;;28.19;36.03;96653.50;4996843;28;20060;-33
2021/08/19 06:04:48;;;;;;;1.35;0.80;;;;;;;28.17;35.98;96658.00;4997435;28;20030;-31
2021/08/19 06:07:13;;;;;;;2.10;0.82;;;;;;;28.18;36.01;96654.41;4997945;28;20065;-32
2021/08/19 06:09:39;;;;;;;17.42;2.00;;;;;;;28.17;35.57;96653.59;4988984;28;20034;-30
2021/08/19 06:12:05;;;;;;;8.05;1.63;;;;;;;28.15;35.42;96658.09;4996363;28;20681;-28
2021/08/19 06:14:30;;;;;;;3.60;1.05;;;;;;;28.12;35.22;96660.94;4990402;28;20103;-30
2021/08/19 06:16:56;;;;;;;4.40;1.20;;;;;;;28.08;35.15;96658.59;4989438;28;20453;-31
2021/08/19 06:19:21;;;;;;;2.97;1.23;;;;;;;28.03;35.11;96648.34;4991864;28;20912;-30
2021/08/19 06:21:47;;;;;;;2.45;1.02;;;;;;;27.98;35.10;96658.34;4990287;28;20038;-31
2021/08/19 06:24:12;;;;;;;1.25;0.90;;;;;;;27.94;35.14;96655.06;4993596;28;20072;-28
2021/08/19 06:26:37;;;;;;;1.35;0.70;;;;;;;27.89;35.01;96655.34;4999013;28;20026;-29
2021/08/19 06:29:03;;;;;;;3.28;0.95;;;;;;;27.85;35.21;96667.06;4992444;28;20026;-34
2021/08/19 06:31:28;;;;;;;1.27;0.75;;;;;;;27.81;35.28;96657.66;4996675;28;20556;-30
2021/08/19 06:33:54;;;;;;;1.48;0.75;;;;;;;27.77;35.31;96667.50;4995910;28;20036;-30
2021/08/19 06:36:19;;;;;;;4.10;0.90;;;;;;;27.73;35.45;96666.03;4993730;28;20076;-30
2021/08/19 06:38:45;;;;;;;3.95;1.00;;;;;;;27.73;35.36;96659.94;4989321;28;20026;-29
2021/08/19 06:41:10;;;;;;;2.30;0.90;;;;;;;27.69;35.55;96654.00;4992391;28;20786;-29
2021/08/19 06:43:35;;;;;;;6.57;1.10;;;;;;;27.68;35.46;96662.00;4990074;28;21927;-31
2021/08/19 06:46:01;;;;;;;2.97;1.13;;;;;;;27.64;35.48;96658.69;4993890;28;20092;-31
2021/08/19 06:48:26;;;;;;;10.05;1.35;;;;;;;27.63;35.77;96660.50;4986066;28;20176;-27
2021/08/19 06:50:52;;;;;;;7.07;2.80;;;;;;;27.61;35.55;96657.13;4994440;28;20080;-31
2021/08/19 06:53:17;;;;;;;6.40;2.28;;;;;;;27.59;35.57;96658.97;4993489;28;20111;-29
2021/08/19 06:55:42;;;;;;;4.60;1.73;;;;;;;27.58;35.62;96656.44;4992115;28;20053;-32
2021/08/19 06:58:08;;;;;;;4.53;1.75;;;;;;;27.56;35.69;96668.84;4990701;28;20507;-29
2021/08/19 07:00:33;;;;;;;2.70;1.30;;;;;;;27.55;35.69;96662.75;4990986;28;20037;-30
2021/08/19 07:02:59;;;;;;;1.55;1.15;;;;;;;27.48;35.58;96656.16;4992835;28;20049;-30
2021/08/19 07:05:24;;;;;;;2.92;1.38;;;;;;;27.52;35.62;96662.91;4992964;28;20033;-31
2021/08/19 07:07:50;;;;;;;2.25;1.20;;;;;;;27.50;35.67;96663.00;4991681;28;20502;-30
2021/08/19 07:10:15;;;;;;;1.77;0.90;;;;;;;27.50;35.67;96662.19;4993774;28;20033;-34
2021/08/19 07:12:41;;;;;;;4.20;1.10;;;;;;;27.48;35.68;96656.16;4984641;28;20041;-32
2021/08/19 07:15:07;;;;;;;2.20;1.00;;;;;;;27.48;35.65;96658.78;4991051;28;20056;-31
2021/08/19 07:17:32;;;;;;;2.25;1.25;;;;;;;27.47;35.60;96663.22;4986847;28;20033;-30
2021/08/19 07:19:58;;;;;;;2.85;1.23;;;;;;;27.47;35.61;96657.09;4984577;28;20425;-30
2021/08/19 07:22:23;;;;;;;1.08;0.80;;;;;;;27.47;35.58;96659.75;4996619;28;20037;-30
2021/08/19 07:24:49;;;;;;;3.47;1.30;;;;;;;27.47;35.57;96660.59;4994598;28;20034;-34
2021/08/19 07:27:14;;;;;;;3.03;1.38;;;;;;;27.47;35.47;96660.59;4993764;28;20034;-29
2021/08/19 07:29:40;;;;;;;5.28;1.80;;;;;;;27.47;35.46;96657.09;4991095;28;20025;-31
2021/08/19 07:32:05;;;;;;;11.95;2.70;;;;;;;27.46;35.39;96658.88;4987749;28;20651;-32
2021/08/19 07:34:31;;;;;;;5.22;2.08;;;;;;;27.44;35.23;96654.66;4992533;28;20072;-29
2021/08/19 07:36:56;;;;;;;4.13;1.13;;;;;;;27.42;34.99;96659.19;4992244;28;20033;-30
2021/08/19 07:39:22;;;;;;;2.83;1.35;;;;;;;27.38;35.18;96659.38;4989823;28;20046;-31
2021/08/19 07:41:47;;;;;;;2.00;1.15;;;;;;;27.38;34.81;96651.47;4989576;28;20029;-33
2021/08/19 07:44:13;;;;;;;2.03;1.10;;;;;;;27.37;35.02;96651.56;4990336;28;20389;-30
2021/08/19 07:46:38;;;;;;;2.13;1.20;;;;;;;27.34;35.09;96655.22;4990550;28;20036;-29
2021/08/19 07:49:04;;;;;;;1.67;0.90;;;;;;;27.33;35.35;96653.53;4989767;28;20025;-30
2021/08/19 07:51:34;;;;;;;2.65;1.08;;;;;;;27.33;35.17;96652.69;4984980;28;20488;-33
2021/08/19 07:53:59;;;;;;;3.50;1.08;;;;;;;27.32;35.42;96662.38;4989810;28;20041;-31
2021/08/19 07:56:24;;;;;;;1.95;1.10;;;;;;;27.33;35.39;96652.69;4991933;28;20034;-34
2021/08/19 07:58:50;;;;;;;1.02;0.82;;;;;;;27.33;35.31;96666.69;4989011;28;20034;-28
2021/08/19 08:01:15;;;;;;;4.00;1.20;;;;;;;27.31;35.21;96663.31;4988799;28;20029;-29
2021/08/19 08:03:41;;;;;;;2.67;1.23;;;;;;;27.29;35.22;96666.97;4991000;28;20057;-29
2021/08/19 08:06:06;;;;;;;1.65;1.00;;;;;;;27.26;35.21;96673.25;4991234;28;20026;-31
2021/08/19 08:08:32;;;;;;;1.60;0.98;;;;;;;27.23;35.14;96669.03;4984753;28;20469;-30
2021/08/19 08:10:57;;;;;;;2.00;0.90;;;;;;;27.20;35.15;96665.75;4992886;28;20033;-28
2021/08/19 08:13:22;;;;;;;1.98;0.90;;;;;;;27.16;35.14;96669.53;4989390;28;20993;-29
2021/08/19 08:15:48;;;;;;;1.65;1.10;;;;;;;27.12;35.13;96672.31;4987200;28;21065;-29
2021/08/19 08:18:15;;;;;;;1.40;0.80;;;;;;;27.11;35.34;96669.78;4989299;28;20021;-31
2021/08/19 08:20:41;;;;;;;0.95;0.77;;;;;;;27.10;35.20;96668.09;4991759;28;20524;-28
2021/08/19 08:23:06;;;;;;;2.25;1.23;;;;;;;27.08;35.18;96670.81;4987278;28;20030;-28
2021/08/19 08:25:32;;;;;;;1.40;0.95;;;;;;;27.07;35.49;96679.66;4991019;28;20709;-30
2021/08/19 08:27:59;;;;;;;2.05;0.90;;;;;;;27.05;35.45;96676.28;4973768;28;20022;-30
2021/08/19 08:30:26;;;;;;;1.73;1.00;;;;;;;27.03;35.46;96678.16;4993176;28;20037;-29
2021/08/19 08:32:51;;;;;;;1.33;0.70;;;;;;;27.02;35.54;96679.09;4984957;28;20029;-32
2021/08/19 08:35:17;;;;;;;2.28;1.10;;;;;;;27.00;35.57;96679.19;4981304;28;20056;-31
2021/08/19 08:37:42;;;;;;;2.17;1.15;;;;;;;26.97;35.54;96681.16;4982371;28;20172;-32
2021/08/19 08:40:10;;;;;;;1.00;0.90;;;;;;;26.98;35.64;96680.22;4980835;28;20041;-30
2021/08/19 08:42:35;;;;;;;0.90;0.80;;;;;;;26.97;35.74;96683.78;4990521;28;20522;-28
2021/08/19 08:45:01;;;;;;;1.73;1.10;;;;;;;26.98;35.68;96688.09;4986845;28;20041;-33
2021/08/19 08:47:32;;;;;;;11.13;1.60;;;;;;;26.97;35.61;96681.16;4982877;28;20399;-29
2021/08/19 08:49:58;;;;;;;9.07;1.33;;;;;;;27.00;36.07;96683.56;4966136;28;20026;-29
2021/08/19 08:52:24;;;;;;;7.85;1.33;;;;;;;27.04;35.92;96685.09;4982946;28;20064;-30
2021/08/19 08:54:51;;;;;;;6.85;0.95;;;;;;;27.08;35.93;96686.59;4976601;28;20712;-32
2021/08/19 08:57:17;;;;;;;1.40;0.77;;;;;;;27.13;36.00;96683.72;4989489;28;20026;-32
2021/08/19 08:59:42;;;;;;;4.60;1.08;;;;;;;27.16;35.93;96686.16;4974587;28;20470;-31
2021/08/19 09:02:08;;;;;;;1.15;0.90;;;;;;;27.23;35.86;96689.25;4992669;28;20038;-29
2021/08/19 09:04:33;;;;;;;3.38;1.20;;;;;;;27.27;35.99;96688.97;4999636;28;20056;-30
2021/08/19 09:06:59;;;;;;;2.53;1.23;;;;;;;27.32;35.88;96688.69;4986250;28;20037;-31
2021/08/19 09:09:25;;;;;;;3.20;1.40;;;;;;;27.37;35.91;96702.41;4978792;28;20057;-31
2021/08/19 09:11:53;;;;;;;6.43;1.60;;;;;;;27.41;35.83;96702.22;4995933;28;20045;-30
2021/08/19 09:14:20;;;;;;;2.88;1.30;;;;;;;27.45;35.81;96701.06;4978187;28;20111;-28
2021/08/19 09:16:47;;;;;;;2.80;1.50;;;;;;;27.48;35.72;96699.13;4995964;28;20057;-33
2021/08/19 09:19:16;;;;;;;4.15;1.52;;;;;;;27.52;35.76;96697.13;4995927;28;20018;-28
2021/08/19 09:22:01;;;;;;;3.42;1.35;;;;;;;27.56;35.84;96693.38;4998252;28;20543;-30
2021/08/19 09:24:28;;;;;;;1.67;1.40;;;;;;;27.60;35.79;96688.75;4995619;28;20018;-30
2021/08/19 09:26:54;;;;;;;2.00;1.45;;;;;;;27.62;35.68;96684.28;4997074;28;20580;-31
2021/08/19 09:29:25;;;;;;;3.75;1.60;;;;;;;27.63;35.82;96681.56;4999490;28;20514;-29
2021/08/19 09:31:55;;;;;;;3.17;1.30;;;;;;;27.68;35.72;96670.72;4997742;28;20017;-31
2021/08/19 09:34:21;;;;;;;2.95;1.25;;;;;;;27.69;35.68;96668.97;4993777;28;20033;-33
2021/08/19 09:36:57;;;;;;;3.38;1.60;;;;;;;27.72;35.75;96668.78;4995147;28;20029;-30
2021/08/19 09:39:34;;;;;;;1.95;1.10;;;;;;;27.74;35.65;96661.59;4993545;28;20125;-31
2021/08/19 09:42:01;;;;;;;3.33;1.50;;;;;;;27.77;35.67;96664.88;4995060;28;20531;-29
2021/08/19 09:44:37;;;;;;;2.90;1.70;;;;;;;27.78;35.66;96663.97;4980472;28;20026;-32
2021/08/19 09:47:03;;;;;;;3.47;1.23;;;;;;;27.81;35.67;96662.91;4996745;28;20030;-34
2021/08/19 09:49:30;;;;;;;4.15;1.50;;;;;;;27.81;35.75;96662.91;4996580;28;20026;-35
2021/08/19 09:52:10;;;;;;;3.00;1.45;;;;;;;27.85;35.76;96674.09;4987942;28;20121;-30
2021/08/19 09:54:39;;;;;;;4.40;1.63;;;;;;;27.85;35.76;96674.94;4998656;28;20496;-32
2021/08/19 09:57:05;;;;;;;3.38;1.40;;;;;;;27.87;35.65;96673.06;4996593;28;20034;-28
2021/08/19 09:59:36;;;;;;;3.65;1.20;;;;;;;27.89;35.79;96671.16;4998659;28;20729;-29
2021/08/19 10:02:02;;;;;;;1.58;1.13;;;;;;;27.89;35.87;96665.88;4995962;28;20031;-33
2021/08/19 10:04:29;;;;;;;2.45;1.30;;;;;;;27.93;35.67;96669.19;4997408;28;20038;-30
2021/08/19 10:06:55;;;;;;;3.05;1.40;;;;;;;27.94;35.81;96667.38;4996334;28;20666;-31
2021/08/19 10:09:20;;;;;;;4.28;1.33;;;;;;;27.95;35.88;96669.09;4995946;28;20036;-30
2021/08/19 10:11:47;;;;;;;3.45;1.30;;;;;;;27.97;35.77;96661.94;4996003;28;20018;-30
2021/08/19 10:14:32;;;;;;;1.83;1.23;;;;;;;27.97;35.85;96661.94;4993779;28;20405;-32
2021/08/19 10:16:58;;;;;;;1.77;1.20;;;;;;;27.99;35.86;96670.59;4990334;28;20044;-34
2021/08/19 10:19:37;;;;;;;1.90;1.30;;;;;;;28.01;35.80;96668.69;4992055;28;20022;-32
2021/08/19 10:22:11;;;;;;;3.50;1.50;;;;;;;28.02;35.91;96659.84;4989152;28;20026;-28
2021/08/19 10:24:38;;;;;;;2.13;1.27;;;;;;;28.03;35.80;96661.50;4988858;28;20029;-33
2021/08/19 10:27:17;;;;;;;3.15;1.25;;;;;;;28.03;35.84;96658.88;4987030;28;20109;-31
2021/08/19 10:29:50;;;;;;;2.95;1.38;;;;;;;28.06;35.88;96661.31;4993726;28;20377;-30
2021/08/19 10:32:34;;;;;;;2.35;1.30;;;;;;;28.07;35.86;96652.47;4991605;28;20029;-30
2021/08/19 10:35:09;;;;;;;3.63;1.50;;;;;;;28.08;35.84;96654.19;4991455;28;20424;-33
2021/08/19 10:37:47;;;;;;;2.95;1.23;;;;;;;28.09;35.86;96653.25;4991100;28;20040;-29
2021/08/19 10:40:24;;;;;;;2.85;1.02;;;;;;;28.11;35.69;96653.97;4987821;28;20061;-30
2021/08/19 10:42:53;;;;;;;2.58;1.30;;;;;;;28.12;35.39;96650.41;4988502;28;20104;-32
2021/08/19 10:45:28;;;;;;;2.40;1.27;;;;;;;28.12;35.04;96654.81;4993676;28;20116;-29
2021/08/19 10:48:08;;;;;;;1.75;1.02;;;;;;;28.11;34.84;96653.97;4993284;28;20116;-35
2021/08/19 10:50:40;;;;;;;2.00;0.68;;;;;;;28.10;34.69;96647.00;4994097;28;20038;-33
2021/08/19 10:53:12;;;;;;;1.55;1.05;;;;;;;28.10;34.61;96648.81;4993874;28;20046;-31
2021/08/19 10:55:45;;;;;;;2.63;1.15;;;;;;;28.09;34.62;96645.34;4991964;28;20107;-29
2021/08/19 10:58:29;;;;;;;1.20;0.88;;;;;;;28.08;34.41;96648.91;4993039;28;20053;-32
2021/08/19 11:00:59;;;;;;;2.00;0.93;;;;;;;28.08;34.51;96646.28;4993010;28;20032;-30
2021/08/19 11:03:37;;;;;;;2.67;0.75;;;;;;;28.07;34.50;96644.56;4988995;28;20448;-32
2021/08/19 11:06:23;;;;;;;2.33;0.95;;;;;;;-148.56;100.00;61375.16;4993379;28;20641;-32
2021/08/19 11:09:53;;;;;;;1.63;1.00;;;;;;;-148.56;100.00;61375.16;4990116;28;20034;-32
2021/08/19 11:13:19;;;;;;;0.80;0.80;;;;;;;-148.56;100.00;61375.16;4979317;28;20046;-31
2021/08/19 11:15:48;;;;;;;1.35;1.23;;;;;;;28.07;34.50;96644.56;4983114;28;20111;-34
2021/08/19 11:18:49;;;;;;;2.13;0.80;;;;;;;28.07;34.50;96644.56;4989919;28;20029;-33
2021/08/19 11:21:27;;;;;;;2.58;1.13;;;;;;;28.07;34.50;96644.56;4990197;28;20050;-32
2021/08/19 11:24:12;;;;;;;1.52;0.98;;;;;;;28.07;34.50;96644.56;4989627;28;20080;-33
2021/08/19 11:27:36;;;;;;;5.18;1.10;;;;;;;-148.56;100.00;61375.16;4977963;28;20665;-31
2021/08/19 11:30:10;;;;;;;2.15;1.05;;;;;;;28.07;34.50;96644.56;4990820;28;20076;-33
2021/08/19 11:32:44;;;;;;;3.22;1.05;;;;;;;28.07;34.50;96644.56;4985208;28;20077;-30
2021/08/19 11:35:28;;;;;;;3.08;0.93;;;;;;;28.07;100.00;84021.63;4995405;28;20099;-33